createdAt,value
2023-03-19T00:00:37.120Z,73.40
2023-03-19T00:03:06.955Z,73.60
2023-03-19T00:05:34.134Z,73.80
2023-03-19T00:08:01.203Z,73.90
2023-03-19T00:10:28.298Z,74.00
2023-03-19T00:12:55.621Z,74.30
2023-03-19T00:15:22.867Z,74.20
2023-03-19T00:17:52.167Z,74.10
2023-03-19T00:20:20.413Z,74.70
2023-03-19T00:22:47.359Z,74.00
2023-03-19T00:25:14.859Z,74.10
2023-03-19T00:27:44.729Z,74.00
2023-03-19T00:30:12.300Z,74.10
2023-03-19T00:32:39.768Z,74.10
2023-03-19T00:35:09.779Z,74.30
2023-03-19T00:37:37.470Z,74.50
2023-03-19T00:40:05.607Z,74.50
2023-03-19T00:42:32.669Z,74.50
2023-03-19T00:44:59.640Z,74.40
2023-03-19T00:47:29.226Z,74.40
2023-03-19T00:49:56.345Z,74.40
2023-03-19T00:52:23.269Z,74.30
2023-03-19T00:54:50.186Z,74.40
2023-03-19T00:57:18.307Z,74.40
2023-03-19T00:59:45.219Z,74.40
2023-03-19T01:02:12.145Z,74.40
2023-03-19T01:04:40.238Z,74.30
2023-03-19T01:07:07.327Z,74.30
2023-03-19T01:09:36.162Z,74.30
2023-03-19T01:12:04.932Z,74.30
2023-03-19T01:14:32.293Z,74.20
2023-03-19T01:16:59.380Z,74.30
2023-03-19T01:19:26.545Z,74.10
2023-03-19T01:21:53.470Z,74.00
2023-03-19T01:24:20.647Z,73.90
2023-03-19T01:26:47.576Z,74.60
2023-03-19T01:29:14.593Z,74.00
2023-03-19T01:31:41.703Z,73.90
2023-03-19T01:34:08.642Z,73.90
2023-03-19T01:36:35.798Z,73.90
2023-03-19T01:39:02.822Z,73.90
2023-03-19T01:41:29.924Z,73.80
2023-03-19T01:43:56.775Z,73.70
2023-03-19T01:46:32.114Z,73.70
2023-03-19T01:49:02.809Z,73.80
2023-03-19T01:51:36.119Z,73.70
2023-03-19T01:54:06.230Z,73.60
2023-03-19T01:56:36.509Z,73.60
2023-03-19T01:59:13.882Z,73.60
2023-03-19T02:01:50.084Z,73.60
2023-03-19T02:04:17.230Z,73.60
2023-03-19T02:06:45.057Z,73.60
2023-03-19T02:09:12.674Z,73.60
2023-03-19T02:11:39.670Z,73.60
2023-03-19T02:14:07.178Z,73.50
2023-03-19T02:16:34.099Z,73.60
2023-03-19T02:19:01.555Z,73.50
2023-03-19T02:21:29.047Z,73.70
2023-03-19T02:24:03.273Z,73.70
2023-03-19T02:26:31.409Z,73.80
2023-03-19T02:28:59.675Z,73.80
2023-03-19T02:31:27.916Z,73.70
2023-03-19T02:34:05.651Z,73.60
2023-03-19T02:36:45.841Z,73.50
2023-03-19T02:39:27.945Z,73.40
2023-03-19T02:41:57.198Z,73.40
2023-03-19T02:44:24.075Z,73.30
2023-03-19T02:46:51.772Z,73.20
2023-03-19T02:49:19.134Z,73.10
2023-03-19T02:51:46.189Z,73.20
2023-03-19T02:54:13.126Z,73.20
2023-03-19T02:56:42.462Z,73.20
2023-03-19T02:59:09.586Z,73.20
2023-03-19T03:01:38.595Z,73.00
2023-03-19T03:04:08.775Z,72.90
2023-03-19T03:06:35.764Z,72.80
2023-03-19T03:09:03.702Z,72.80
2023-03-19T03:11:37.895Z,72.70
2023-03-19T03:14:04.846Z,72.60
2023-03-19T03:16:31.891Z,72.60
2023-03-19T03:18:59.525Z,72.50
2023-03-19T03:21:27.405Z,72.50
2023-03-19T03:23:54.298Z,72.40
2023-03-19T03:26:21.970Z,72.30
2023-03-19T03:28:49.172Z,72.30
2023-03-19T03:31:18.206Z,72.30
2023-03-19T03:33:45.934Z,72.30
2023-03-19T03:36:13.367Z,72.40
2023-03-19T03:38:40.702Z,72.40
2023-03-19T03:41:07.981Z,72.40
2023-03-19T03:43:34.950Z,72.70
2023-03-19T03:46:01.971Z,72.30
2023-03-19T03:48:29.028Z,72.30
2023-03-19T03:50:55.882Z,72.30
2023-03-19T03:53:22.845Z,72.30
2023-03-19T03:55:49.856Z,72.30
2023-03-19T03:58:17.016Z,72.30
2023-03-19T04:00:43.935Z,72.30
2023-03-19T04:03:10.855Z,72.20
2023-03-19T04:05:38.477Z,72.30
2023-03-19T04:08:07.875Z,72.30
2023-03-19T04:10:36.954Z,72.20
2023-03-19T04:13:03.937Z,72.20
2023-03-19T04:15:31.376Z,72.10
2023-03-19T04:17:58.276Z,72.00
2023-03-19T04:20:25.548Z,72.10
2023-03-19T04:22:52.427Z,72.10
2023-03-19T04:25:19.535Z,72.10
2023-03-19T04:27:46.412Z,72.00
2023-03-19T04:30:14.310Z,72.00
2023-03-19T04:32:41.600Z,71.90
2023-03-19T04:35:08.842Z,71.90
2023-03-19T04:37:35.959Z,71.80
2023-03-19T04:40:03.040Z,71.80
2023-03-19T04:42:29.924Z,71.80
2023-03-19T04:44:57.295Z,71.70
2023-03-19T04:47:24.246Z,71.70
2023-03-19T04:49:51.461Z,71.60
2023-03-19T04:52:18.401Z,71.60
2023-03-19T04:54:45.300Z,71.60
2023-03-19T04:57:12.508Z,71.60
2023-03-19T04:59:39.481Z,71.60
2023-03-19T05:02:06.422Z,71.60
2023-03-19T05:04:33.481Z,71.60
2023-03-19T05:07:00.932Z,71.60
2023-03-19T05:09:28.025Z,72.30
2023-03-19T05:11:54.943Z,71.70
2023-03-19T05:14:21.826Z,71.60
2023-03-19T05:16:48.851Z,71.50
2023-03-19T05:19:18.248Z,71.50
2023-03-19T05:21:45.537Z,71.50
2023-03-19T05:24:12.506Z,71.60
2023-03-19T05:26:39.437Z,71.50
2023-03-19T05:29:07.868Z,71.50
2023-03-19T05:31:34.810Z,71.50
2023-03-19T05:34:01.718Z,71.50
2023-03-19T05:36:29.138Z,71.50
2023-03-19T05:38:56.297Z,71.40
2023-03-19T05:41:23.336Z,71.40
2023-03-19T05:43:51.162Z,71.40
2023-03-19T05:46:18.099Z,71.40
2023-03-19T05:48:45.002Z,71.40
2023-03-19T05:51:12.888Z,71.40
2023-03-19T05:53:39.796Z,71.30
2023-03-19T05:56:06.963Z,71.20
2023-03-19T05:58:33.974Z,71.20
2023-03-19T06:01:02.016Z,71.20
2023-03-19T06:03:29.044Z,71.10
2023-03-19T06:05:55.907Z,71.10
2023-03-19T06:08:23.457Z,71.00
2023-03-19T06:10:53.345Z,71.00
2023-03-19T06:13:20.711Z,70.90
2023-03-19T06:15:49.874Z,70.80
2023-03-19T06:18:17.257Z,70.80
2023-03-19T06:20:47.296Z,70.70
2023-03-19T06:23:16.282Z,70.70
2023-03-19T06:25:43.485Z,70.80
2023-03-19T06:28:10.614Z,70.80
2023-03-19T06:30:37.629Z,70.70
2023-03-19T06:33:05.181Z,70.70
2023-03-19T06:35:32.288Z,70.70
2023-03-19T06:37:59.215Z,70.70
2023-03-19T06:40:26.177Z,70.60
2023-03-19T06:42:53.368Z,70.70
2023-03-19T06:45:20.385Z,70.80
2023-03-19T06:47:47.643Z,70.80
2023-03-19T06:50:16.896Z,70.90
2023-03-19T06:52:44.477Z,70.90
2023-03-19T06:55:12.425Z,71.00
2023-03-19T06:57:39.484Z,71.10
2023-03-19T07:00:07.536Z,71.30
2023-03-19T07:02:34.691Z,71.40
2023-03-19T07:05:01.580Z,71.60
2023-03-19T07:07:28.458Z,71.70
2023-03-19T07:09:55.843Z,71.80
2023-03-19T07:12:30.167Z,72.00
2023-03-19T07:14:57.393Z,72.10
2023-03-19T07:17:25.484Z,72.20
2023-03-19T07:19:52.663Z,72.30
2023-03-19T07:22:22.529Z,72.40
2023-03-19T07:24:49.650Z,72.50
2023-03-19T07:27:16.689Z,72.60
2023-03-19T07:29:43.559Z,72.70
2023-03-19T07:32:12.459Z,72.90
2023-03-19T07:34:39.391Z,73.00
2023-03-19T07:37:06.783Z,73.00
2023-03-19T07:39:34.194Z,73.20
2023-03-19T07:42:01.076Z,73.30
2023-03-19T07:44:27.986Z,73.30
2023-03-19T07:46:54.924Z,73.50
2023-03-19T07:49:23.564Z,73.40
2023-03-19T07:51:50.552Z,73.60
2023-03-19T07:54:17.814Z,74.30
2023-03-19T07:56:44.821Z,73.70
2023-03-19T07:59:12.057Z,73.80
2023-03-19T08:01:38.960Z,73.80
2023-03-19T08:04:05.946Z,74.00
2023-03-19T08:06:33.573Z,74.00
2023-03-19T08:09:01.886Z,74.00
2023-03-19T08:11:30.060Z,74.10
2023-03-19T08:13:56.971Z,74.10
2023-03-19T08:16:23.935Z,74.10
2023-03-19T08:18:52.585Z,74.20
2023-03-19T08:21:19.648Z,74.10
2023-03-19T08:23:46.706Z,74.20
2023-03-19T08:26:15.025Z,74.20
2023-03-19T08:28:41.988Z,74.20
2023-03-19T08:31:14.144Z,74.20
2023-03-19T08:33:41.838Z,74.20
2023-03-19T08:36:13.897Z,74.20
2023-03-19T08:38:42.839Z,74.30
2023-03-19T08:41:10.588Z,74.40
2023-03-19T08:43:38.702Z,74.50
2023-03-19T08:46:06.230Z,74.50
2023-03-19T08:48:33.350Z,74.60
2023-03-19T08:51:02.841Z,74.60
2023-03-19T08:53:31.139Z,74.70
2023-03-19T08:56:01.496Z,74.70
2023-03-19T08:58:30.353Z,74.80
2023-03-19T09:01:10.268Z,74.00
2023-03-19T09:03:38.119Z,70.90
2023-03-19T09:06:08.008Z,70.60
2023-03-19T09:08:36.444Z,70.40
2023-03-19T09:11:04.675Z,70.90
2023-03-19T09:13:32.150Z,71.20
2023-03-19T09:15:59.113Z,70.40
2023-03-19T09:18:26.196Z,71.30
2023-03-19T09:20:54.425Z,70.70
2023-03-19T09:23:22.364Z,70.30
2023-03-19T09:25:49.520Z,70.30
2023-03-19T09:28:16.922Z,70.30
2023-03-19T09:30:47.825Z,69.90
2023-03-19T09:33:16.370Z,69.90
2023-03-19T09:35:44.011Z,69.40
2023-03-19T09:38:11.121Z,69.60
2023-03-19T09:40:48.737Z,69.50
2023-03-19T09:43:29.979Z,69.40
2023-03-19T09:45:58.498Z,69.60
2023-03-19T09:48:56.255Z,69.30
2023-03-19T09:51:34.056Z,69.40
2023-03-19T09:54:15.987Z,70.10
2023-03-19T09:56:42.915Z,69.50
2023-03-19T09:59:10.064Z,69.50
2023-03-19T10:01:41.522Z,69.50
2023-03-19T10:04:56.022Z,69.40
2023-03-19T10:07:32.630Z,69.40
2023-03-19T10:10:08.454Z,69.40
2023-03-19T10:12:58.032Z,69.30
2023-03-19T10:15:33.874Z,69.40
2023-03-19T10:18:19.973Z,69.30
2023-03-19T10:20:52.595Z,69.40
2023-03-19T10:23:34.558Z,69.30
2023-03-19T10:26:04.574Z,69.30
2023-03-19T10:28:31.556Z,69.20
2023-03-19T10:31:37.919Z,69.20
2023-03-19T10:34:31.504Z,69.20
2023-03-19T10:37:01.031Z,69.10
2023-03-19T10:39:29.796Z,68.90
2023-03-19T10:42:21.555Z,69.20
2023-03-19T10:45:20.504Z,69.10
2023-03-19T10:47:47.696Z,68.60
2023-03-19T10:50:27.716Z,67.00
2023-03-19T10:53:14.180Z,67.30
2023-03-19T10:56:00.971Z,66.90
2023-03-19T10:58:29.854Z,66.70
2023-03-19T11:01:04.077Z,66.60
2023-03-19T11:03:38.164Z,66.70
2023-03-19T11:06:20.003Z,66.60
2023-03-19T11:09:15.166Z,66.50
2023-03-19T11:11:52.071Z,66.30
2023-03-19T11:14:24.775Z,66.40
2023-03-19T11:16:57.714Z,66.40
2023-03-19T11:19:46.961Z,66.50
2023-03-19T11:22:21.079Z,66.40
2023-03-19T11:25:15.652Z,66.30
2023-03-19T11:27:43.692Z,66.30
2023-03-19T11:30:18.041Z,66.20
2023-03-19T11:33:12.923Z,66.20
2023-03-19T11:35:50.486Z,66.00
2023-03-19T11:38:33.913Z,66.30
2023-03-19T11:41:21.568Z,66.30
2023-03-19T11:44:22.585Z,66.30
2023-03-19T11:47:27.225Z,66.30
2023-03-19T11:50:22.370Z,66.30
2023-03-19T11:53:12.430Z,65.80
2023-03-19T11:55:50.836Z,65.90
2023-03-19T11:58:43.159Z,65.80
2023-03-19T12:01:49.601Z,65.80
2023-03-19T12:04:55.525Z,65.90
2023-03-19T12:07:37.285Z,65.90
2023-03-19T12:10:04.123Z,66.00
2023-03-19T12:12:41.545Z,66.00
2023-03-19T12:15:26.132Z,66.10
2023-03-19T12:18:08.479Z,66.10
2023-03-19T12:21:01.798Z,66.20
2023-03-19T12:23:54.655Z,66.30
2023-03-19T12:26:28.097Z,66.30
2023-03-19T12:29:06.849Z,66.30
2023-03-19T12:32:05.340Z,66.30
2023-03-19T12:34:47.917Z,66.40
2023-03-19T12:37:46.676Z,66.50
2023-03-19T12:40:25.421Z,66.50
2023-03-19T12:42:57.028Z,66.50
2023-03-19T12:45:33.181Z,66.60
2023-03-19T12:48:28.881Z,66.70
2023-03-19T12:51:03.662Z,67.60
2023-03-19T12:53:52.492Z,67.10
2023-03-19T12:56:34.849Z,66.60
2023-03-19T12:59:18.785Z,67.00
2023-03-19T13:02:03.418Z,67.20
2023-03-19T13:04:37.627Z,67.40
2023-03-19T13:07:09.074Z,67.40
2023-03-19T13:09:43.580Z,67.70
2023-03-19T13:12:22.630Z,67.90
2023-03-19T13:15:10.817Z,68.20
2023-03-19T13:17:50.347Z,68.50
2023-03-19T13:20:27.359Z,68.60
2023-03-19T13:22:59.527Z,68.80
2023-03-19T13:25:40.068Z,69.00
2023-03-19T13:28:10.855Z,69.10
2023-03-19T13:30:42.477Z,69.30
2023-03-19T13:33:22.995Z,69.40
2023-03-19T13:35:51.475Z,69.50
2023-03-19T13:38:43.754Z,69.60
2023-03-19T13:41:32.571Z,69.60
2023-03-19T13:44:00.963Z,69.60
2023-03-19T13:46:37.734Z,69.70
2023-03-19T13:49:25.411Z,69.80
2023-03-19T13:51:56.313Z,69.80
2023-03-19T13:54:44.027Z,69.80
2023-03-19T13:57:18.569Z,68.60
2023-03-19T13:59:48.261Z,68.10
2023-03-19T14:02:25.499Z,68.20
2023-03-19T14:05:02.977Z,68.30
2023-03-19T14:07:37.235Z,68.40
2023-03-19T14:10:08.903Z,68.60
2023-03-19T14:12:41.776Z,68.70
2023-03-19T14:15:09.323Z,68.90
2023-03-19T14:17:59.658Z,69.00
2023-03-19T14:20:40.305Z,69.10
2023-03-19T14:23:14.638Z,69.20
2023-03-19T14:26:03.550Z,69.40
2023-03-19T14:29:01.583Z,69.50
2023-03-19T14:31:34.358Z,69.60
2023-03-19T14:34:21.788Z,69.70
2023-03-19T14:37:16.279Z,69.80
2023-03-19T14:39:45.789Z,69.90
2023-03-19T14:42:39.802Z,70.00
2023-03-19T14:45:06.686Z,70.10
2023-03-19T14:48:01.093Z,70.10
2023-03-19T14:50:50.579Z,70.10
2023-03-19T14:53:43.934Z,70.30
2023-03-19T14:56:19.183Z,70.30
2023-03-19T14:58:57.359Z,70.00
2023-03-19T15:01:28.319Z,69.00
2023-03-19T15:03:59.016Z,68.70
2023-03-19T15:06:40.106Z,68.70
2023-03-19T15:09:17.125Z,68.90
2023-03-19T15:11:59.518Z,69.10
2023-03-19T15:14:29.216Z,69.30
2023-03-19T15:17:21.618Z,69.60
2023-03-19T15:19:48.974Z,69.70
2023-03-19T15:22:26.947Z,69.90
2023-03-19T15:24:54.248Z,70.10
2023-03-19T15:27:26.666Z,70.20
2023-03-19T15:30:02.070Z,70.50
2023-03-19T15:33:08.952Z,70.40
2023-03-19T15:35:31.975Z,70.50
2023-03-19T15:38:07.134Z,70.70
2023-03-19T15:40:36.705Z,70.80
2023-03-19T15:43:06.193Z,71.00
2023-03-19T15:45:34.461Z,71.00
2023-03-19T15:48:06.825Z,71.00
2023-03-19T15:50:37.340Z,71.00
2023-03-19T15:53:09.635Z,71.10
2023-03-19T15:55:37.536Z,71.10
2023-03-19T15:58:08.774Z,71.20
2023-03-19T16:00:39.946Z,71.30
2023-03-19T16:03:11.491Z,70.90
2023-03-19T16:05:38.631Z,68.90
2023-03-19T16:08:26.914Z,68.10
2023-03-19T16:10:54.358Z,66.80
2023-03-19T16:13:25.939Z,65.80
2023-03-19T16:16:08.709Z,65.30
2023-03-19T16:18:52.177Z,64.70
2023-03-19T16:21:40.485Z,64.00
2023-03-19T16:24:13.399Z,63.50
2023-03-19T16:26:43.123Z,62.90
2023-03-19T16:29:28.178Z,62.30
2023-03-19T16:32:20.457Z,62.30
2023-03-19T16:34:51.619Z,61.90
2023-03-19T16:37:30.072Z,61.30
2023-03-19T16:39:59.660Z,61.50
2023-03-19T16:42:32.469Z,60.80
2023-03-19T16:45:15.423Z,60.60
2023-03-19T16:47:43.374Z,60.80
2023-03-19T16:50:11.677Z,60.00
2023-03-19T16:52:40.411Z,60.10
2023-03-19T16:55:19.400Z,59.40
2023-03-19T16:57:51.184Z,59.50
2023-03-19T17:00:18.766Z,60.50
2023-03-19T17:02:45.806Z,62.30
2023-03-19T17:05:14.863Z,63.00
2023-03-19T17:07:43.186Z,61.80
2023-03-19T17:10:19.560Z,61.30
2023-03-19T17:12:49.827Z,60.70
2023-03-19T17:15:28.658Z,59.70
2023-03-19T17:17:56.310Z,59.40
2023-03-19T17:20:33.226Z,59.40
2023-03-19T17:23:02.351Z,58.60
2023-03-19T17:25:29.434Z,58.80
2023-03-19T17:27:56.375Z,59.00
2023-03-19T17:30:23.423Z,58.70
2023-03-19T17:32:51.789Z,58.50
2023-03-19T17:35:21.566Z,58.50
2023-03-19T17:37:49.857Z,58.40
2023-03-19T17:40:28.078Z,58.40
2023-03-19T17:42:56.015Z,58.30
2023-03-19T17:45:29.746Z,58.20
2023-03-19T17:47:58.738Z,58.20
2023-03-19T17:52:54.586Z,57.40
2023-03-19T17:55:28.485Z,58.00
2023-03-19T17:57:57.289Z,57.50
2023-03-19T18:00:25.480Z,57.50
2023-03-19T18:02:54.410Z,57.60
2023-03-19T18:05:25.032Z,57.00
2023-03-19T18:07:56.611Z,57.10
2023-03-19T18:10:30.524Z,56.70
2023-03-19T18:13:00.486Z,56.70
2023-03-19T18:15:30.050Z,56.70
2023-03-19T18:17:59.401Z,56.20
2023-03-19T18:20:32.328Z,56.00
2023-03-19T18:22:59.471Z,56.30
2023-03-19T18:25:31.904Z,56.30
2023-03-19T18:27:58.958Z,55.90
2023-03-19T18:30:26.025Z,55.90
2023-03-19T18:32:59.343Z,55.80
2023-03-19T18:35:36.930Z,55.80
2023-03-19T18:38:04.205Z,55.70
2023-03-19T18:40:33.221Z,55.50
2023-03-19T18:43:01.967Z,55.50
2023-03-19T18:45:30.709Z,55.30
2023-03-19T18:47:58.037Z,55.40
2023-03-19T18:50:29.322Z,55.20
2023-03-19T18:52:56.872Z,55.30
2023-03-19T18:55:28.221Z,55.10
2023-03-19T18:57:58.627Z,55.20
2023-03-19T19:00:29.296Z,55.70
2023-03-19T19:02:56.794Z,55.00
2023-03-19T19:05:27.722Z,54.90
2023-03-19T19:07:59.654Z,55.10
2023-03-19T19:10:32.155Z,55.50
2023-03-19T19:12:59.426Z,56.10
2023-03-19T19:15:30.817Z,55.30
2023-03-19T19:17:58.248Z,55.30
2023-03-19T19:20:29.655Z,55.40
2023-03-19T19:22:56.800Z,55.10
2023-03-19T19:25:28.954Z,55.20
2023-03-19T19:28:02.780Z,55.10
2023-03-19T19:30:30.125Z,55.20
2023-03-19T19:32:57.517Z,55.40
2023-03-19T19:35:27.482Z,55.50
2023-03-19T19:37:55.598Z,55.40
2023-03-19T19:40:29.336Z,55.50
2023-03-19T19:42:57.061Z,55.60
2023-03-19T19:45:36.516Z,55.50
2023-03-19T19:48:07.745Z,55.50
2023-03-19T19:50:34.890Z,55.50
2023-03-19T19:53:01.909Z,55.50
2023-03-19T19:55:29.688Z,55.50
2023-03-19T19:57:57.974Z,55.60
2023-03-19T20:00:28.684Z,55.60
2023-03-19T20:02:57.442Z,56.10
2023-03-19T20:05:26.967Z,56.50
2023-03-19T20:07:55.954Z,56.70
2023-03-19T20:10:25.404Z,56.90
2023-03-19T20:12:55.500Z,57.20
2023-03-19T20:15:25.262Z,57.60
2023-03-19T20:17:53.620Z,57.90
2023-03-19T20:20:27.110Z,58.50
2023-03-19T20:22:55.126Z,58.90
2023-03-19T20:25:24.708Z,59.70
2023-03-19T20:27:56.661Z,61.50
2023-03-19T20:30:33.495Z,60.60
2023-03-19T20:33:02.124Z,60.10
2023-03-19T20:35:30.826Z,59.80
2023-03-19T20:37:59.090Z,59.60
2023-03-19T20:40:32.964Z,59.40
2023-03-19T20:43:01.869Z,59.20
2023-03-19T20:45:36.445Z,59.00
2023-03-19T20:48:05.283Z,58.90
2023-03-19T20:50:33.201Z,58.90
2023-03-19T20:53:03.896Z,58.70
2023-03-19T20:55:36.421Z,58.50
2023-03-19T20:58:12.215Z,58.40
2023-03-19T21:00:39.161Z,58.30
2023-03-19T21:03:06.432Z,58.20
2023-03-19T21:05:38.544Z,58.10
2023-03-19T21:08:12.058Z,58.00
2023-03-19T21:10:42.254Z,57.90
2023-03-19T21:13:13.693Z,57.90
2023-03-19T21:15:42.043Z,57.70
2023-03-19T21:18:10.006Z,57.70
2023-03-19T21:20:39.284Z,57.70
2023-03-19T21:23:28.195Z,57.50
2023-03-19T21:25:55.438Z,57.50
2023-03-19T21:28:25.518Z,57.40
2023-03-19T21:30:53.015Z,57.40
2023-03-19T21:33:25.602Z,57.40
2023-03-19T21:35:53.788Z,57.20
2023-03-19T21:38:22.454Z,57.70
2023-03-19T21:40:51.499Z,57.10
2023-03-19T21:43:33.914Z,57.10
2023-03-19T21:46:13.813Z,56.90
2023-03-19T21:48:44.630Z,56.80
2023-03-19T21:51:16.366Z,56.80
2023-03-19T21:53:44.028Z,56.70
2023-03-19T21:56:25.229Z,56.60
2023-03-19T21:58:53.226Z,56.70
2023-03-19T22:01:25.647Z,56.80
2023-03-19T22:03:54.450Z,57.10
2023-03-19T22:06:22.208Z,57.50
2023-03-19T22:08:49.556Z,57.90
2023-03-19T22:11:25.959Z,81.20
2023-03-19T22:13:53.696Z,58.70
2023-03-19T22:16:24.088Z,59.60
2023-03-19T22:18:52.704Z,60.10
2023-03-19T22:21:22.134Z,60.10
2023-03-19T22:23:50.335Z,60.60
2023-03-19T22:26:38.915Z,61.00
2023-03-19T22:29:13.320Z,62.40
2023-03-19T22:31:42.000Z,79.00
2023-03-19T22:34:17.174Z,67.40
2023-03-19T22:36:44.794Z,68.30
2023-03-19T22:39:12.180Z,62.90
2023-03-19T22:41:43.870Z,63.20
2023-03-19T22:44:39.892Z,63.50
2023-03-19T22:47:09.998Z,63.90
2023-03-19T22:49:36.906Z,64.20
2023-03-19T22:52:03.875Z,64.40
2023-03-19T22:54:30.858Z,64.50
2023-03-19T22:56:57.678Z,65.00
2023-03-19T22:59:24.546Z,65.10
2023-03-19T23:01:51.640Z,65.30
2023-03-19T23:04:26.160Z,65.50
2023-03-19T23:06:55.001Z,65.60
2023-03-19T23:09:26.520Z,65.80
2023-03-19T23:11:53.923Z,65.90
2023-03-19T23:14:29.528Z,66.20
2023-03-19T23:17:06.779Z,66.30
2023-03-19T23:19:38.622Z,66.60
2023-03-19T23:22:06.834Z,66.50
2023-03-19T23:24:34.022Z,66.80
2023-03-19T23:27:02.453Z,67.10
2023-03-19T23:29:36.136Z,67.20
2023-03-19T23:32:04.501Z,67.30
2023-03-19T23:34:33.513Z,67.50
2023-03-19T23:37:02.635Z,67.50
2023-03-19T23:39:29.583Z,67.70
2023-03-19T23:41:58.804Z,67.80
2023-03-19T23:44:27.316Z,67.90
2023-03-19T23:46:56.383Z,68.10
2023-03-19T23:49:32.378Z,68.20
2023-03-19T23:52:00.553Z,68.20
2023-03-19T23:54:37.109Z,68.20
2023-03-19T23:57:07.457Z,68.20
2023-03-19T23:59:40.585Z,68.40
